Time;durP1;ratioP1;P1;durP2;ratioP2;P2;SDS_P1;SDS_P2;PMS_P1;PMS_P2;Temp;Humidity;BMP_temperature;BMP_pressure;BME280_temperature;BME280_humidity;BME280_pressure;Samples;Min_cycle;Max_cycle;Signal;HPM_P1;HPM_P2
2021/10/17 00:00:32;;;;;;;4.80;3.90;;;8.40;1.00;;;;;;5037396;28;20193;-77
2021/10/17 00:02:58;;;;;;;5.53;4.30;;;8.40;1.00;;;;;;5031773;28;20193;-78
2021/10/17 00:05:26;;;;;;;7.07;4.27;;;8.80;1.00;;;;;;5035709;28;20284;-78
2021/10/17 00:07:52;;;;;;;7.80;4.53;;;8.30;1.00;;;;;;5035231;28;20214;-78
2021/10/17 00:10:24;;;;;;;5.20;4.60;;;8.30;1.00;;;;;;5058026;28;20290;-78
2021/10/17 00:12:51;;;;;;;5.50;3.87;;;8.30;1.00;;;;;;5048376;28;20187;-79
2021/10/17 00:15:18;;;;;;;3.90;3.60;;;8.30;1.00;;;;;;5027972;28;20635;-78
2021/10/17 00:17:45;;;;;;;5.70;4.30;;;8.30;1.00;;;;;;5045793;28;20171;-78
2021/10/17 00:20:12;;;;;;;6.77;4.23;;;8.30;1.00;;;;;;5036009;28;20182;-78
2021/10/17 00:22:39;;;;;;;5.50;3.70;;;8.20;1.00;;;;;;5067042;28;20195;-79
2021/10/17 00:25:06;;;;;;;6.73;4.13;;;8.20;1.00;;;;;;5045728;28;20189;-78
2021/10/17 00:27:31;;;;;;;5.47;3.87;;;8.10;1.00;;;;;;5031544;28;20285;-78
2021/10/17 00:29:57;;;;;;;4.37;3.97;;;8.10;1.00;;;;;;5032107;28;20241;-78
2021/10/17 00:32:23;;;;;;;4.37;3.73;;;8.10;1.00;;;;;;5033528;28;20194;-78
2021/10/17 00:34:49;;;;;;;5.27;4.70;;;8.10;1.00;;;;;;5037352;28;20620;-78
2021/10/17 00:37:17;;;;;;;5.67;4.33;;;7.90;1.00;;;;;;5049238;28;20189;-78
2021/10/17 00:39:42;;;;;;;6.13;4.77;;;7.90;1.00;;;;;;5038050;28;20178;-78
2021/10/17 00:42:08;;;;;;;5.83;3.80;;;8.00;1.00;;;;;;5061485;28;20287;-78
2021/10/17 00:44:34;;;;;;;4.87;4.00;;;7.90;1.00;;;;;;5029522;28;20175;-78
2021/10/17 00:47:00;;;;;;;4.63;3.90;;;7.90;1.00;;;;;;5035878;28;20689;-78
2021/10/17 00:49:26;;;;;;;7.63;4.60;;;7.90;1.00;;;;;;5034523;28;20240;-78
2021/10/17 00:51:52;;;;;;;6.07;4.53;;;7.80;1.00;;;;;;5026834;28;20214;-78
2021/10/17 00:54:18;;;;;;;5.50;4.07;;;;;;;;;;5035571;28;20190;-78
2021/10/17 00:56:45;;;;;;;5.30;4.50;;;7.80;1.00;;;;;;5047135;28;20194;-78
2021/10/17 00:59:12;;;;;;;7.07;4.17;;;7.80;1.00;;;;;;5032765;28;20188;-78
2021/10/17 01:01:38;;;;;;;5.40;4.00;;;7.80;1.00;;;;;;5035629;28;20286;-78
2021/10/17 01:04:05;;;;;;;7.43;4.40;;;7.80;1.00;;;;;;5033788;28;20215;-78
2021/10/17 01:06:30;;;;;;;9.33;4.20;;;7.80;1.00;;;;;;5034949;28;20209;-78
2021/10/17 01:08:59;;;;;;;8.23;4.70;;;7.90;1.00;;;;;;5037734;28;20197;-78
2021/10/17 01:11:42;;;;;;;7.80;4.37;;;7.80;1.00;;;;;;5047896;28;20677;-78
2021/10/17 01:14:09;;;;;;;6.93;4.63;;;7.80;1.00;;;;;;5033741;28;20223;-78
2021/10/17 01:16:36;;;;;;;9.10;5.20;;;7.90;1.00;;;;;;5032164;28;20188;-78
2021/10/17 01:19:02;;;;;;;7.30;4.50;;;;;;;;;;5043474;28;20201;-78
2021/10/17 01:21:28;;;;;;;4.93;4.27;;;7.80;1.00;;;;;;5052355;28;20289;-79
2021/10/17 01:23:54;;;;;;;5.67;4.70;;;7.90;1.00;;;;;;5050758;28;20231;-79
2021/10/17 01:26:20;;;;;;;6.23;4.50;;;;;;;;;;5047870;28;20191;-79
2021/10/17 01:28:48;;;;;;;8.00;4.80;;;8.00;1.00;;;;;;5031404;28;20251;-79
2021/10/17 01:31:14;;;;;;;9.30;4.73;;;8.00;1.00;;;;;;5050310;28;20280;-79
2021/10/17 01:33:40;;;;;;;4.63;4.20;;;8.00;1.00;;;;;;5053409;28;20213;-79
2021/10/17 01:36:05;;;;;;;7.17;4.40;;;8.00;1.00;;;;;;5052086;28;20206;-79
2021/10/17 01:38:31;;;;;;;6.17;4.40;;;8.10;1.00;;;;;;5037077;28;20194;-76
2021/10/17 01:40:57;;;;;;;11.10;4.43;;;;;;;;;;5063267;28;20183;-77
2021/10/17 01:43:27;;;;;;;6.23;4.03;;;8.10;1.00;;;;;;5028396;28;20198;-78
2021/10/17 01:45:52;;;;;;;7.70;4.63;;;8.10;1.00;;;;;;5053694;28;20192;-78
2021/10/17 01:48:18;;;;;;;7.47;4.70;;;8.00;1.00;;;;;;5034753;28;20702;-78
2021/10/17 01:50:44;;;;;;;5.63;4.20;;;8.10;1.00;;;;;;5037157;28;20214;-78
2021/10/17 01:53:09;;;;;;;6.83;4.57;;;8.10;1.00;;;;;;5025987;28;20187;-78
2021/10/17 01:55:35;;;;;;;5.60;4.03;;;8.10;1.00;;;;;;5034672;28;20187;-78
2021/10/17 01:58:01;;;;;;;5.03;4.20;;;8.00;1.00;;;;;;5053229;28;20214;-78
2021/10/17 02:00:26;;;;;;;6.50;4.30;;;8.20;1.00;;;;;;5055657;28;20183;-78
2021/10/17 02:02:52;;;;;;;5.27;3.97;;;7.90;1.00;;;;;;5053122;28;20615;-78
2021/10/17 02:05:17;;;;;;;7.40;4.13;;;8.00;1.00;;;;;;5051717;28;20237;-78
2021/10/17 02:07:43;;;;;;;6.20;4.10;;;8.00;1.00;;;;;;5036501;28;20238;-78
2021/10/17 02:10:09;;;;;;;4.77;4.13;;;8.00;1.00;;;;;;5049830;28;20212;-78
2021/10/17 02:12:34;;;;;;;4.40;3.83;;;8.10;1.00;;;;;;5053825;28;20187;-78
2021/10/17 02:15:04;;;;;;;4.13;3.73;;;8.40;1.00;;;;;;5038470;28;20191;-78
2021/10/17 02:17:31;;;;;;;4.63;3.40;;;8.10;1.00;;;;;;5038411;28;20179;-78
2021/10/17 02:19:57;;;;;;;4.40;3.73;;;8.20;1.00;;;;;;5033791;28;20187;-78
2021/10/17 02:22:23;;;;;;;5.67;4.10;;;9.10;1.00;;;;;;5040833;28;20188;-78
2021/10/17 02:24:48;;;;;;;5.87;3.90;;;8.20;1.00;;;;;;5033463;28;20192;-78
2021/10/17 02:27:14;;;;;;;5.90;4.00;;;8.20;1.00;;;;;;5041768;28;20266;-78
2021/10/17 02:29:39;;;;;;;6.03;4.67;;;8.20;1.00;;;;;;5050864;28;20215;-78
2021/10/17 02:32:05;;;;;;;5.67;4.17;;;8.20;1.00;;;;;;5037972;28;20238;-78
2021/10/17 02:34:32;;;;;;;4.87;4.27;;;8.30;1.00;;;;;;5036690;28;20187;-78
2021/10/17 02:36:59;;;;;;;6.40;4.07;;;;;;;;;;5035640;28;20198;-77
2021/10/17 02:39:24;;;;;;;5.10;4.33;;;8.30;1.00;;;;;;5034161;28;20233;-78
2021/10/17 02:41:50;;;;;;;6.90;4.27;;;8.30;1.00;;;;;;5037661;28;20195;-78
2021/10/17 02:44:15;;;;;;;5.63;3.60;;;8.20;1.00;;;;;;5035149;28;20201;-78
2021/10/17 02:46:41;;;;;;;4.30;3.83;;;9.80;1.00;;;;;;5050962;28;20221;-78
2021/10/17 02:49:07;;;;;;;8.20;4.50;;;8.10;1.00;;;;;;5052166;28;20627;-79
2021/10/17 02:51:32;;;;;;;8.00;4.27;;;8.20;1.00;;;;;;5032656;28;20270;-78
2021/10/17 02:53:59;;;;;;;6.20;4.33;;;8.30;1.00;;;;;;5032075;28;20186;-81
2021/10/17 02:56:25;;;;;;;7.40;4.33;;;8.30;1.00;;;;;;5071094;28;20191;-80
2021/10/17 02:58:51;;;;;;;9.13;4.47;;;;;;;;;;5060116;28;20671;-81
2021/10/17 03:01:17;;;;;;;7.00;4.20;;;8.20;1.00;;;;;;5045259;28;20187;-81
2021/10/17 03:03:42;;;;;;;4.50;4.10;;;8.30;1.00;;;;;;5060854;28;20229;-81
2021/10/17 03:06:08;;;;;;;5.53;3.73;;;11.10;1.00;;;;;;5041122;28;20298;-81
2021/10/17 03:08:33;;;;;;;7.90;4.10;;;8.20;1.00;;;;;;5042955;28;20202;-80
2021/10/17 03:10:59;;;;;;;5.97;4.00;;;8.40;1.00;;;;;;5062558;28;20211;-81
2021/10/17 03:13:25;;;;;;;4.13;3.70;;;8.10;1.00;;;;;;5045881;28;20199;-81
2021/10/17 03:15:50;;;;;;;7.93;4.70;;;8.10;1.00;;;;;;5043260;28;20230;-81
2021/10/17 03:18:16;;;;;;;9.20;4.53;;;8.10;1.00;;;;;;5056809;28;20210;-81
2021/10/17 03:20:41;;;;;;;4.73;4.33;;;8.10;1.00;;;;;;5059642;28;20241;-81
2021/10/17 03:23:07;;;;;;;6.00;5.10;;;8.10;1.00;;;;;;5049465;28;20195;-81
2021/10/17 03:25:33;;;;;;;5.93;4.27;;;8.00;1.00;;;;;;5061537;28;20321;-81
2021/10/17 03:27:58;;;;;;;6.83;4.27;;;7.90;1.00;;;;;;5061712;28;20206;-81
2021/10/17 03:30:24;;;;;;;5.87;4.60;;;7.90;1.00;;;;;;5073836;28;20206;-82
2021/10/17 03:32:50;;;;;;;7.20;4.77;;;;;;;;;;5060588;28;20543;-81
2021/10/17 03:35:16;;;;;;;4.47;4.03;;;7.80;1.00;;;;;;5048975;28;20190;-81
2021/10/17 03:37:41;;;;;;;5.03;4.20;;;7.80;1.00;;;;;;5074685;28;20255;-81
2021/10/17 03:40:08;;;;;;;5.93;4.13;;;7.80;1.00;;;;;;5045778;28;20255;-81
2021/10/17 03:42:33;;;;;;;6.60;4.50;;;7.80;1.00;;;;;;5042126;28;20227;-81
2021/10/17 03:44:59;;;;;;;5.10;4.10;;;7.80;1.00;;;;;;5045960;28;20225;-81
2021/10/17 03:47:24;;;;;;;7.67;4.73;;;7.70;1.00;;;;;;5042255;28;20194;-81
2021/10/17 03:49:50;;;;;;;5.30;4.27;;;7.80;1.00;;;;;;5062539;28;20203;-81
2021/10/17 03:52:16;;;;;;;10.20;4.57;;;7.00;1.00;;;;;;5058150;28;20596;-81
2021/10/17 03:54:43;;;;;;;4.80;4.40;;;9.90;1.00;;;;;;5040727;28;20193;-81
2021/10/17 03:57:09;;;;;;;5.30;4.07;;;7.80;1.00;;;;;;5063988;28;20210;-81
2021/10/17 03:59:35;;;;;;;4.80;4.23;;;7.80;1.00;;;;;;5045914;28;20278;-80
2021/10/17 04:02:01;;;;;;;5.77;4.37;;;;;;;;;;5043937;28;20215;-81
2021/10/17 04:04:26;;;;;;;6.50;4.47;;;7.90;1.00;;;;;;5068439;28;20226;-82
2021/10/17 04:06:52;;;;;;;5.97;4.40;;;7.90;1.00;;;;;;5035245;28;20203;-81
2021/10/17 04:09:18;;;;;;;5.33;4.33;;;;;;;;;;5041005;28;20210;-81
2021/10/17 04:11:46;;;;;;;4.83;4.33;;;8.00;1.00;;;;;;5044682;28;20184;-81
2021/10/17 04:14:13;;;;;;;7.03;4.37;;;8.10;1.00;;;;;;5047885;28;20194;-80
2021/10/17 04:16:39;;;;;;;4.27;3.67;;;10.80;1.00;;;;;;5044195;28;22939;-81
2021/10/17 04:19:05;;;;;;;10.00;4.57;;;8.20;1.00;;;;;;5076186;28;20183;-83
2021/10/17 04:21:30;;;;;;;4.50;4.10;;;8.20;1.00;;;;;;5039470;28;20184;-81
2021/10/17 04:23:56;;;;;;;4.60;4.17;;;8.20;1.00;;;;;;5049993;28;20194;-81
2021/10/17 04:26:22;;;;;;;6.60;4.27;;;8.20;1.00;;;;;;5036110;28;20218;-80
2021/10/17 04:28:48;;;;;;;5.37;4.20;;;8.30;1.00;;;;;;5039559;28;20651;-79
2021/10/17 04:31:14;;;;;;;6.47;4.50;;;8.50;1.00;;;;;;5069373;28;20318;-80
2021/10/17 04:33:40;;;;;;;5.37;4.60;;;8.30;1.00;;;;;;5057099;28;20203;-80
2021/10/17 04:36:06;;;;;;;6.33;3.87;;;;;;;;;;5039852;28;20703;-81
2021/10/17 04:38:33;;;;;;;8.30;4.43;;;8.30;1.00;;;;;;5056576;28;20198;-81
2021/10/17 04:40:59;;;;;;;10.07;4.30;;;8.30;1.00;;;;;;5035466;28;20267;-81
2021/10/17 04:43:25;;;;;;;5.73;3.87;;;;;;;;;;5058605;28;20214;-80
2021/10/17 04:45:51;;;;;;;5.27;3.90;;;8.30;1.00;;;;;;5041416;28;20187;-81
2021/10/17 04:48:16;;;;;;;7.83;4.03;;;8.30;1.00;;;;;;5043247;28;20198;-81
2021/10/17 04:50:42;;;;;;;5.20;4.10;;;8.40;1.00;;;;;;5036391;28;20223;-81
2021/10/17 04:53:09;;;;;;;5.80;4.37;;;8.50;1.00;;;;;;5056767;28;20306;-81
2021/10/17 04:55:34;;;;;;;6.77;3.97;;;10.00;1.00;;;;;;5040024;28;20543;-81
2021/10/17 04:58:03;;;;;;;9.03;5.27;;;;;;;;;;5048208;28;20187;-81
2021/10/17 05:00:28;;;;;;;4.50;4.10;;;8.40;1.00;;;;;;5041579;28;20199;-81
2021/10/17 05:02:54;;;;;;;6.27;4.20;;;8.40;1.00;;;;;;5042604;28;20575;-81
2021/10/17 05:05:19;;;;;;;4.80;4.07;;;10.20;1.00;;;;;;5044601;28;20199;-81
2021/10/17 05:07:45;;;;;;;6.23;4.03;;;8.40;1.00;;;;;;5038166;28;20230;-81
2021/10/17 05:10:11;;;;;;;6.27;4.30;;;;;;;;;;5039164;28;20227;-81
2021/10/17 05:12:37;;;;;;;4.30;3.90;;;;;;;;;;5038364;28;20211;-80
2021/10/17 05:15:03;;;;;;;7.80;4.60;;;8.40;1.00;;;;;;5074713;28;20234;-80
2021/10/17 05:17:29;;;;;;;5.83;4.13;;;8.40;1.00;;;;;;5039809;28;20183;-81
2021/10/17 05:19:54;;;;;;;8.03;3.80;;;9.50;1.00;;;;;;5042771;28;20194;-81
2021/10/17 05:22:20;;;;;;;4.40;3.83;;;8.50;1.00;;;;;;5034872;28;20604;-80
2021/10/17 05:24:46;;;;;;;5.67;4.27;;;;;;;;;;5052499;28;20196;-82
2021/10/17 05:27:11;;;;;;;6.03;4.00;;;8.40;1.00;;;;;;5043737;28;20190;-81
2021/10/17 05:29:37;;;;;;;4.63;3.80;;;;;;;;;;5057833;28;20206;-80
2021/10/17 05:32:05;;;;;;;4.43;4.03;;;8.40;1.00;;;;;;5041581;28;20821;-80
2021/10/17 05:34:31;;;;;;;4.80;4.27;;;;;;;;;;5043990;28;20187;-81
2021/10/17 05:36:57;;;;;;;4.77;3.97;;;8.40;1.00;;;;;;5044244;28;20194;-80
2021/10/17 05:39:22;;;;;;;4.87;3.83;;;9.70;1.00;;;;;;5065767;28;20197;-80
2021/10/17 05:41:48;;;;;;;5.23;4.40;;;;;;;;;;5041074;28;20547;-80
2021/10/17 05:44:14;;;;;;;6.97;4.07;;;8.40;1.00;;;;;;5061398;28;20566;-80
2021/10/17 05:46:39;;;;;;;4.80;3.83;;;8.40;1.00;;;;;;5040789;28;20234;-80
2021/10/17 05:49:05;;;;;;;6.43;4.07;;;8.40;1.00;;;;;;5041099;28;20255;-79
2021/10/17 05:51:31;;;;;;;6.13;3.90;;;10.40;1.00;;;;;;5054652;28;20228;-80
2021/10/17 05:53:56;;;;;;;5.97;3.77;;;11.80;1.00;;;;;;5034528;28;20191;-80
2021/10/17 05:56:22;;;;;;;5.63;4.23;;;10.50;1.00;;;;;;5066732;28;20179;-79
2021/10/17 05:58:48;;;;;;;5.43;4.10;;;;;;;;;;5049870;28;20242;-79
2021/10/17 06:01:14;;;;;;;6.00;3.80;;;;;;;;;;5060876;28;20206;-79
2021/10/17 06:03:40;;;;;;;4.33;3.73;;;;;;;;;;5056657;28;20269;-79
2021/10/17 06:06:06;;;;;;;7.73;4.37;;;8.50;1.00;;;;;;5041229;28;20214;-80
2021/10/17 06:08:32;;;;;;;4.90;4.40;;;8.50;1.00;;;;;;5037021;28;20207;-79
2021/10/17 06:10:58;;;;;;;3.87;3.47;;;8.50;1.00;;;;;;5041576;28;20229;-79
2021/10/17 06:13:23;;;;;;;6.00;4.50;;;8.50;1.00;;;;;;5057351;28;20183;-80
2021/10/17 06:15:49;;;;;;;4.30;3.90;;;8.60;1.00;;;;;;5046728;28;20258;-80
2021/10/17 06:18:15;;;;;;;8.40;4.03;;;8.90;1.00;;;;;;5061620;28;20202;-80
2021/10/17 06:20:41;;;;;;;8.17;4.40;;;;;;;;;;5062527;28;20695;-80
2021/10/17 06:23:07;;;;;;;5.63;3.93;;;8.50;1.00;;;;;;5044345;28;20195;-80
2021/10/17 06:25:33;;;;;;;5.80;4.13;;;;;;;;;;5045006;28;20477;-80
2021/10/17 06:28:01;;;;;;;5.13;4.23;;;;;;;;;;5043630;28;20195;-80
2021/10/17 06:30:27;;;;;;;4.90;4.20;;;8.50;1.00;;;;;;5048708;28;20294;-81
2021/10/17 06:32:52;;;;;;;6.97;4.07;;;8.50;1.00;;;;;;5036140;28;20234;-80
2021/10/17 06:35:18;;;;;;;5.47;4.00;;;;;;;;;;5047313;28;20251;-81
2021/10/17 06:37:44;;;;;;;6.10;4.03;;;;;;;;;;5039354;28;20176;-80
2021/10/17 06:40:11;;;;;;;6.50;3.80;;;8.70;1.00;;;;;;5045482;28;20187;-80
2021/10/17 06:42:36;;;;;;;4.27;3.67;;;8.80;1.00;;;;;;5049830;28;20227;-80
2021/10/17 06:45:03;;;;;;;4.30;3.90;;;9.60;1.00;;;;;;5050068;28;20190;-80
2021/10/17 06:47:28;;;;;;;5.00;3.87;;;8.80;1.00;;;;;;5041428;28;20209;-80
2021/10/17 06:49:54;;;;;;;4.73;4.30;;;8.80;1.00;;;;;;5039311;28;20861;-80
2021/10/17 06:52:20;;;;;;;3.83;3.43;;;8.80;1.00;;;;;;5051847;28;20202;-81
2021/10/17 06:54:45;;;;;;;6.80;4.17;;;8.90;1.00;;;;;;5038450;28;20424;-81
2021/10/17 06:57:11;;;;;;;7.27;4.23;;;;;;;;;;5043506;28;20191;-81
2021/10/17 06:59:38;;;;;;;4.77;3.43;;;8.90;1.00;;;;;;5027596;28;20275;-81
2021/10/17 07:02:03;;;;;;;5.50;3.80;;;9.10;1.00;;;;;;5040919;28;20214;-83
2021/10/17 07:04:29;;;;;;;5.37;3.73;;;9.10;1.00;;;;;;5038495;28;20206;-83
2021/10/17 07:06:55;;;;;;;4.17;3.77;;;9.60;1.00;;;;;;5055386;28;20774;-83
2021/10/17 07:09:20;;;;;;;6.70;4.07;;;9.10;1.00;;;;;;5045726;28;20604;-83
2021/10/17 07:11:46;;;;;;;6.00;4.00;;;9.20;1.00;;;;;;5041565;28;20628;-84
2021/10/17 07:14:11;;;;;;;5.97;4.13;;;9.20;1.00;;;;;;5046024;28;20203;-85
2021/10/17 07:16:37;;;;;;;6.37;4.27;;;9.30;1.00;;;;;;5041157;28;20183;-83
2021/10/17 07:19:03;;;;;;;4.13;3.73;;;;;;;;;;5037705;28;21063;-83
2021/10/17 07:21:29;;;;;;;5.30;3.97;;;9.40;1.00;;;;;;5054591;28;20246;-84
2021/10/17 07:23:54;;;;;;;8.40;4.27;;;11.80;1.00;;;;;;5066035;28;20192;-83
2021/10/17 07:26:20;;;;;;;5.50;4.03;;;9.40;1.00;;;;;;5053515;28;20188;-83
2021/10/17 07:28:46;;;;;;;7.13;4.13;;;9.50;1.00;;;;;;5051285;28;20211;-83
2021/10/17 07:31:11;;;;;;;5.27;4.03;;;9.50;1.00;;;;;;5055316;28;20231;-84
2021/10/17 07:33:37;;;;;;;4.67;3.90;;;9.60;1.00;;;;;;5053963;28;20196;-84
2021/10/17 07:36:03;;;;;;;6.90;3.80;;;9.50;1.00;;;;;;5036030;28;20188;-84
2021/10/17 07:38:29;;;;;;;4.87;3.70;;;9.70;1.00;;;;;;5056391;28;20182;-85
2021/10/17 07:40:56;;;;;;;8.33;4.17;;;9.80;1.00;;;;;;5071529;28;20195;-79
2021/10/17 07:43:22;;;;;;;7.13;4.37;;;12.00;1.00;;;;;;5043227;28;20180;-80
2021/10/17 07:45:48;;;;;;;4.77;4.00;;;12.50;1.00;;;;;;5058519;28;20201;-80
2021/10/17 07:48:13;;;;;;;5.90;4.50;;;11.80;1.00;;;;;;5035901;28;20878;-80
2021/10/17 07:50:39;;;;;;;4.13;3.70;;;9.80;1.00;;;;;;5038044;28;20351;-80
2021/10/17 07:53:05;;;;;;;4.40;4.00;;;9.90;1.00;;;;;;5052185;28;20183;-80
2021/10/17 07:55:31;;;;;;;4.93;3.73;;;10.00;1.00;;;;;;5037658;28;20599;-80
2021/10/17 07:57:58;;;;;;;4.77;3.70;;;;;;;;;;5036219;28;20188;-79
2021/10/17 08:00:26;;;;;;;4.37;3.83;;;10.00;1.00;;;;;;5051011;28;20183;-78
2021/10/17 08:02:52;;;;;;;7.73;3.93;;;10.20;1.00;;;;;;5033538;28;20190;-79
2021/10/17 08:05:19;;;;;;;3.60;3.30;;;10.20;1.00;;;;;;5031280;28;20261;-79
2021/10/17 08:07:45;;;;;;;5.07;3.80;;;10.30;1.00;;;;;;5042619;28;20224;-80
2021/10/17 08:10:11;;;;;;;4.77;3.47;;;11.00;1.00;;;;;;5055607;28;20219;-80
2021/10/17 08:12:38;;;;;;;3.80;3.13;;;10.50;1.00;;;;;;5037389;28;20181;-80
2021/10/17 08:15:05;;;;;;;4.40;3.37;;;10.60;1.00;;;;;;5039050;28;20205;-80
2021/10/17 08:17:31;;;;;;;5.17;3.77;;;;;;;;;;5058983;28;20192;-80
2021/10/17 08:19:57;;;;;;;4.60;3.33;;;10.60;1.00;;;;;;5038528;28;20200;-80
2021/10/17 08:22:23;;;;;;;3.70;3.00;;;10.70;1.00;;;;;;5037739;28;20821;-79
2021/10/17 08:24:49;;;;;;;5.27;3.40;;;10.70;1.00;;;;;;5033685;28;20540;-79
2021/10/17 08:27:15;;;;;;;5.33;3.57;;;10.70;1.00;;;;;;5038445;28;20189;-80
2021/10/17 08:29:41;;;;;;;4.47;3.10;;;;;;;;;;5036377;28;20581;-79
2021/10/17 08:32:07;;;;;;;5.13;3.67;;;;;;;;;;5071351;28;20279;-80
2021/10/17 08:34:33;;;;;;;5.97;3.70;;;10.70;1.00;;;;;;5040825;28;20215;-79
2021/10/17 08:36:58;;;;;;;4.07;2.57;;;10.70;1.00;;;;;;5035858;28;20224;-81
2021/10/17 08:39:24;;;;;;;7.07;4.10;;;10.70;1.00;;;;;;5055493;28;20607;-81
2021/10/17 08:41:50;;;;;;;4.90;3.03;;;10.60;1.00;;;;;;5040934;28;20179;-80
2021/10/17 08:44:17;;;;;;;5.93;3.57;;;10.80;1.00;;;;;;5037497;28;20191;-82
2021/10/17 08:46:46;;;;;;;4.63;3.30;;;10.80;1.00;;;;;;5050892;28;20188;-79
2021/10/17 08:49:12;;;;;;;5.17;3.37;;;10.90;1.00;;;;;;5035763;28;20272;-79
2021/10/17 08:51:39;;;;;;;5.37;3.50;;;11.00;1.00;;;;;;5033977;28;20207;-80
2021/10/17 08:54:06;;;;;;;6.40;3.50;;;10.90;1.00;;;;;;5040957;28;20182;-80
2021/10/17 08:56:32;;;;;;;4.87;3.03;;;10.90;1.00;;;;;;5054967;28;20220;-80
2021/10/17 08:59:00;;;;;;;5.53;3.30;;;11.00;1.00;;;;;;5066510;28;20187;-80
2021/10/17 09:01:33;;;;;;;4.77;3.47;;;11.10;1.00;;;;;;5052623;28;20298;-80
2021/10/17 09:03:59;;;;;;;4.43;3.40;;;11.10;1.00;;;;;;5042143;28;20273;-80
2021/10/17 09:06:27;;;;;;;4.60;3.73;;;11.20;1.00;;;;;;5052405;28;20200;-80
2021/10/17 09:09:10;;;;;;;5.80;3.57;;;11.60;1.00;;;;;;5065696;28;20211;-79
2021/10/17 09:11:44;;;;;;;4.33;3.43;;;11.60;1.00;;;;;;5036505;28;20207;-80
2021/10/17 09:14:24;;;;;;;3.70;3.00;;;11.80;1.00;;;;;;5038330;28;20194;-82
2021/10/17 09:16:55;;;;;;;3.30;3.00;;;14.70;1.00;;;;;;5035181;28;20287;-79
2021/10/17 09:19:23;;;;;;;3.60;2.93;;;12.20;1.00;;;;;;5036962;28;20604;-81
2021/10/17 09:21:53;;;;;;;3.83;3.30;;;12.40;1.00;;;;;;5071351;28;20272;-82
2021/10/17 09:24:31;;;;;;;3.23;2.63;;;12.70;1.00;;;;;;5027075;28;20224;-81
2021/10/17 09:27:06;;;;;;;5.23;3.50;;;12.70;1.00;;;;;;5034119;28;20190;-83
2021/10/17 09:29:33;;;;;;;3.63;2.73;;;12.90;1.00;;;;;;5046470;28;20182;-81
2021/10/17 09:31:59;;;;;;;3.57;2.57;;;;;;;;;;5043855;28;20179;-82
2021/10/17 09:34:29;;;;;;;4.17;2.67;;;12.60;1.00;;;;;;5055102;28;20182;-83
2021/10/17 09:37:13;;;;;;;3.13;2.83;;;12.70;1.00;;;;;;5052051;28;20557;-81
2021/10/17 09:39:44;;;;;;;3.50;2.90;;;;;;;;;;5052328;28;20187;-84
2021/10/17 09:42:20;;;;;;;4.33;3.23;;;12.80;1.00;;;;;;5042501;28;20677;-82
2021/10/17 09:44:46;;;;;;;3.40;3.10;;;12.90;1.00;;;;;;5043271;28;20221;-81
2021/10/17 09:47:12;;;;;;;3.13;2.47;;;13.00;1.00;;;;;;5042758;28;20195;-81
2021/10/17 09:49:38;;;;;;;4.30;2.40;;;13.10;1.00;;;;;;5041864;28;20184;-85
2021/10/17 09:52:10;;;;;;;2.70;2.27;;;13.50;1.00;;;;;;5033065;28;20569;-83
2021/10/17 09:54:37;;;;;;;4.40;2.63;;;13.20;1.00;;;;;;5055596;28;20212;-82
2021/10/17 09:57:07;;;;;;;3.80;2.90;;;13.20;1.00;;;;;;5066732;28;20192;-82
2021/10/17 09:59:34;;;;;;;5.17;3.50;;;13.00;1.00;;;;;;5037838;28;20191;-81
2021/10/17 10:02:00;;;;;;;4.93;2.97;;;;;;;;;;5037309;28;20209;-82
2021/10/17 10:04:27;;;;;;;4.57;3.00;;;13.00;1.00;;;;;;5040425;28;20269;-83
2021/10/17 10:06:54;;;;;;;4.97;3.07;;;13.30;1.00;;;;;;5057879;28;20211;-83
2021/10/17 10:09:20;;;;;;;4.30;2.70;;;;;;;;;;5043597;28;20215;-82
2021/10/17 10:11:47;;;;;;;8.53;3.40;;;;;;;;;;5041486;28;20189;-83
2021/10/17 10:14:14;;;;;;;3.87;2.70;;;14.00;1.00;;;;;;5052981;28;20221;-85
2021/10/17 10:16:41;;;;;;;2.97;2.67;;;14.30;1.00;;;;;;5054692;28;20288;-86
2021/10/17 10:19:14;;;;;;;7.80;3.67;;;14.30;1.00;;;;;;5044149;28;20183;-85
2021/10/17 10:21:40;;;;;;;3.23;2.70;;;14.30;1.00;;;;;;5042068;28;20192;-85
2021/10/17 10:24:09;;;;;;;5.60;2.90;;;14.40;1.00;;;;;;5047008;28;20580;-84
2021/10/17 10:26:36;;;;;;;5.27;3.33;;;14.40;1.00;;;;;;5060037;28;20500;-85
2021/10/17 10:29:03;;;;;;;3.80;2.30;;;14.60;1.00;;;;;;5043002;28;20210;-85
2021/10/17 10:31:42;;;;;;;5.43;3.00;;;;;;;;;;5043276;28;20690;-86
2021/10/17 10:34:22;;;;;;;3.57;2.90;;;14.40;1.00;;;;;;5050466;28;20194;-85
2021/10/17 10:36:53;;;;;;;2.90;2.50;;;14.40;1.00;;;;;;5040081;28;20179;-85
2021/10/17 10:39:23;;;;;;;4.40;2.87;;;14.40;1.00;;;;;;5038922;28;21320;-85
2021/10/17 10:42:01;;;;;;;3.37;3.00;;;14.40;1.00;;;;;;5074237;28;20193;-85
2021/10/17 10:44:32;;;;;;;2.70;2.40;;;14.20;1.00;;;;;;5040415;28;21211;-83
2021/10/17 10:47:23;;;;;;;3.20;2.67;;;14.10;1.00;;;;;;5034891;28;20187;-84
2021/10/17 10:49:50;;;;;;;5.87;2.73;;;14.00;1.00;;;;;;5032736;28;20219;-83
2021/10/17 10:52:30;;;;;;;4.57;2.80;;;14.10;1.00;;;;;;5055768;28;20206;-83
2021/10/17 10:55:04;;;;;;;4.63;2.70;;;13.90;1.00;;;;;;5039779;28;20184;-84
2021/10/17 10:57:40;;;;;;;5.57;2.60;;;13.90;1.00;;;;;;5042809;28;20251;-85
2021/10/17 11:00:12;;;;;;;4.20;2.83;;;13.90;1.00;;;;;;5033151;28;20185;-85
2021/10/17 11:02:40;;;;;;;3.50;2.50;;;14.40;1.00;;;;;;5075447;28;20214;-85
2021/10/17 11:05:11;;;;;;;4.37;2.33;;;14.40;1.00;;;;;;5040735;28;20227;-85
2021/10/17 11:07:42;;;;;;;5.27;2.47;;;14.10;1.00;;;;;;5045220;28;20308;-85
2021/10/17 11:10:25;;;;;;;6.30;2.97;;;14.30;1.00;;;;;;5050021;28;20224;-85
2021/10/17 11:12:59;;;;;;;3.30;2.47;;;14.30;1.00;;;;;;5037899;28;20186;-84
2021/10/17 11:15:32;;;;;;;3.53;2.73;;;14.60;1.00;;;;;;5043650;28;20234;-84
2021/10/17 11:18:06;;;;;;;2.53;2.20;;;14.90;1.00;;;;;;5038962;28;20196;-85
2021/10/17 11:20:38;;;;;;;4.17;2.63;;;15.30;1.00;;;;;;5054726;28;20294;-83
2021/10/17 11:23:06;;;;;;;3.33;2.37;;;15.30;1.00;;;;;;5071030;28;20371;-85
2021/10/17 11:25:32;;;;;;;3.73;2.50;;;15.30;1.00;;;;;;5043141;28;20236;-85
2021/10/17 11:28:00;;;;;;;3.47;2.50;;;15.30;1.00;;;;;;5051995;28;20205;-84
2021/10/17 11:30:34;;;;;;;6.33;2.40;;;15.40;1.00;;;;;;5038620;28;20234;-84
2021/10/17 11:33:07;;;;;;;3.00;2.47;;;15.40;1.00;;;;;;5037236;28;20242;-84
2021/10/17 11:35:37;;;;;;;2.57;2.37;;;15.60;1.00;;;;;;5059731;28;20194;-84
2021/10/17 11:38:05;;;;;;;3.50;2.50;;;16.10;1.00;;;;;;5060258;28;20195;-84
2021/10/17 11:40:33;;;;;;;2.47;2.20;;;16.10;1.00;;;;;;5039777;28;20254;-84
2021/10/17 11:43:07;;;;;;;3.43;2.20;;;16.30;1.00;;;;;;5034241;28;20200;-85
2021/10/17 11:45:39;;;;;;;3.77;2.47;;;17.10;1.00;;;;;;5052207;28;20201;-84
2021/10/17 11:48:07;;;;;;;2.63;2.17;;;17.10;1.00;;;;;;5059559;28;20194;-84
2021/10/17 11:50:38;;;;;;;2.00;1.80;;;17.50;1.00;;;;;;5060710;28;20218;-83
2021/10/17 11:53:09;;;;;;;4.27;2.40;;;17.80;1.00;;;;;;5042345;28;20245;-84
2021/10/17 11:55:37;;;;;;;3.27;2.07;;;17.60;1.00;;;;;;5042121;28;20216;-84
2021/10/17 11:58:05;;;;;;;3.17;2.33;;;17.60;1.00;;;;;;5057274;28;20265;-84
2021/10/17 12:00:33;;;;;;;2.60;1.90;;;18.00;1.00;;;;;;5041385;28;20204;-85
2021/10/17 12:03:00;;;;;;;3.37;2.00;;;;;;;;;;5039749;28;20195;-84
2021/10/17 12:05:27;;;;;;;3.27;2.00;;;17.70;1.00;;;;;;5046189;28;20197;-84
2021/10/17 12:07:58;;;;;;;2.37;2.17;;;;;;;;;;5055116;28;20201;-85
2021/10/17 12:10:26;;;;;;;2.67;2.20;;;18.00;1.00;;;;;;5059734;28;20224;-84
2021/10/17 12:13:00;;;;;;;4.03;2.43;;;18.70;1.00;;;;;;5035749;28;20198;-84
2021/10/17 12:15:27;;;;;;;1.83;1.70;;;18.70;1.00;;;;;;5072296;28;20193;-84
2021/10/17 12:18:01;;;;;;;2.00;1.80;;;19.00;1.00;;;;;;5040505;28;20186;-84
2021/10/17 12:20:36;;;;;;;2.20;1.60;;;19.00;1.00;;;;;;5054925;28;20189;-84
2021/10/17 12:23:02;;;;;;;1.67;1.50;;;19.00;1.00;;;;;;5043354;28;20201;-84
2021/10/17 12:25:31;;;;;;;2.33;1.80;;;20.10;1.00;;;;;;5056084;28;20186;-84
2021/10/17 12:28:00;;;;;;;3.05;2.00;;;20.70;1.00;;;;;;5072106;28;20289;-85
2021/10/17 12:30:36;;;;;;;2.03;1.65;;;20.70;1.00;;;;;;5066928;28;20216;-84
2021/10/17 12:33:04;;;;;;;1.77;1.38;;;20.70;1.00;;;;;;5042193;28;20590;-84
2021/10/17 12:35:39;;;;;;;3.17;1.50;;;20.70;1.00;;;;;;5059850;28;20215;-84
2021/10/17 12:38:13;;;;;;;4.83;1.90;;;19.70;1.00;;;;;;5040445;28;20218;-83
2021/10/17 12:40:57;;;;;;;3.57;1.77;;;19.60;1.00;;;;;;5046998;28;20256;-83
2021/10/17 12:43:34;;;;;;;3.57;2.07;;;19.60;1.00;;;;;;5048048;28;20186;-84
2021/10/17 12:46:16;;;;;;;3.90;1.70;;;19.60;1.00;;;;;;5040931;28;20198;-84
2021/10/17 12:48:51;;;;;;;3.70;1.70;;;19.10;1.00;;;;;;5031388;28;20193;-85
2021/10/17 12:51:37;;;;;;;2.33;1.80;;;19.10;1.00;;;;;;5036418;28;20224;-85
2021/10/17 12:54:26;;;;;;;3.40;2.00;;;18.90;1.00;;;;;;5063230;28;20237;-85
2021/10/17 12:56:51;;;;;;;3.13;1.67;;;18.70;1.00;;;;;;5035140;28;20184;-84
2021/10/17 12:59:22;;;;;;;2.27;1.63;;;18.50;1.00;;;;;;5033371;28;20655;-84
2021/10/17 13:02:07;;;;;;;4.83;1.93;;;18.40;1.00;;;;;;5065459;28;20208;-85
2021/10/17 13:04:40;;;;;;;4.93;1.93;;;18.40;1.00;;;;;;5036756;28;20271;-85
2021/10/17 13:07:07;;;;;;;3.37;2.20;;;;;;;;;;5044563;28;20202;-85
2021/10/17 13:09:49;;;;;;;1.97;1.50;;;17.50;1.00;;;;;;5043954;28;20188;-85
2021/10/17 13:12:23;;;;;;;2.00;1.87;;;17.40;1.00;;;;;;5029448;28;20243;-85
2021/10/17 13:15:11;;;;;;;3.37;2.30;;;17.40;1.00;;;;;;5036634;28;20436;-85
2021/10/17 13:17:43;;;;;;;4.60;2.40;;;17.50;1.00;;;;;;5045315;28;20257;-84